Fisher Golf — FUGD — position and weather

sailwx.info

Track history (hours):
 
Tides and Currents Weather Stations Pressure Air Temp Water Temp Dewpoint Dewpoint Depression Visibility Wind Speed Wind Dir Waves Ship Positions

Fisher Golf

Last reported at 2016-Dec-19 07:18 UTC. Time now 2017-Jan-19 10:56 UTC.
Position N 46°28' W 003°32'.
Warning: this ship's position is 31 days out of date.

Length 20 m.

Type: Fishing. MMSI: 228239000.

Date/timePositionNaut miles runAvg speedWind from/ knotsBaromVisibWave heightAir tempDewpointWater temp
2016-Dec-19 07:18N 46°28' W 003°32'  
2016-Dec-14 01:09N 45°54' W 001°19'10 5.8
2016-Dec-13 23:20N 45°55' W 001°34'17 9.4
2016-Dec-13 21:33N 45°57' W 001°58'9 9.2
2016-Dec-13 20:33N 45°58' W 002°11'21 5.2
2016-Dec-13 16:31N 46°04' W 002°40'14 2.5
2016-Dec-13 11:04N 46°10' W 002°58'2 3.0
2016-Dec-13 10:33N 46°10' W 003°01'3 2.9
2016-Dec-13 09:30N 46°11' W 003°05'8 1.8
2016-Dec-13 05:18N 46°04' W 003°01'2 2.8
2016-Dec-13 04:28N 46°02' W 003°00'3 2.9
2016-Dec-13 03:31N 45°59' W 003°00'5 2.2
2016-Dec-13 01:12N 46°00' W 002°53'4 2.7
2016-Dec-12 23:33N 46°05' W 002°52'6 2.1
2016-Dec-12 20:28N 46°02' W 002°44'3 2.8
2016-Dec-12 19:31N 46°01' W 002°48'5 0.4
2016-Dec-12 07:31N 45°58' W 002°53'3 3.0
2016-Dec-12 06:27N 45°55' W 002°52'3 3.0
2016-Dec-12 05:33N 45°52' W 002°51'3 3.0
2016-Dec-12 04:33N 45°49' W 002°51'3 2.7
2016-Dec-12 03:32N 45°47' W 002°49'3 2.7
2016-Dec-12 02:34N 45°49' W 002°52'3 3.1
2016-Dec-12 01:33N 45°51' W 002°54'3 3.1
2016-Dec-12 00:32N 45°54' W 002°57'3 3.1
2016-Dec-11 23:33N 45°57' W 002°59'3 3.1
2016-Dec-11 22:33N 45°59' W 003°00'2 2.4
2016-Dec-11 21:33N 46°02' W 003°00'3 2.6
2016-Dec-11 20:33N 46°04' W 003°01'3 2.7
2016-Dec-11 19:31N 46°07' W 003°02'3 2.7
2016-Dec-11 18:29N 46°09' W 003°05'3 2.8
2016-Dec-11 17:34N 46°11' W 003°08'2 2.3
2016-Dec-11 16:33N 46°12' W 003°11'3 2.9
2016-Dec-11 15:34N 46°14' W 003°13'3 3.1
2016-Dec-11 14:34N 46°16' W 003°16'3 3.1
2016-Dec-11 13:33N 46°16' W 003°21'25 1.9
2016-Dec-11 00:33N 46°36' W 003°43'3 2.8
2016-Dec-10 23:33N 46°36' W 003°39'3 2.8
2016-Dec-10 22:33N 46°34' W 003°36'3 2.8
2016-Dec-10 21:33N 46°31' W 003°35'3 3.1
2016-Dec-10 20:33N 46°28' W 003°33'3 3.2
2016-Dec-10 19:33N 46°25' W 003°31'3 3.4
2016-Dec-10 18:33N 46°22' W 003°32'3 3.3
2016-Dec-10 17:33N 46°19' W 003°32'2 1.8
2016-Dec-10 16:33N 46°17' W 003°30'2 2.1
2016-Dec-10 15:33N 46°19' W 003°30'3 2.7
2016-Dec-10 14:33N 46°22' W 003°28'6 2.6
2016-Dec-10 12:06N 46°21' W 003°19'5 2.6
2016-Dec-10 10:18N 46°17' W 003°20'3 3.3
2016-Dec-10 09:30N 46°15' W 003°23'3 3.0
2016-Dec-10 08:33N 46°16' W 003°27'4 2.7
2016-Dec-10 07:12N 46°20' W 003°30'7 0.5
2016-Dec-09 16:22N 46°26' W 003°25'3 3.2
2016-Dec-09 15:32N 46°26' W 003°21'6 3.0
2016-Dec-09 13:29N 46°25' W 003°12'6 2.7
2016-Dec-09 11:18N 46°21' W 003°06'2 2.9
2016-Dec-09 10:33N 46°19' W 003°05'3 2.9
2016-Dec-09 09:33N 46°16' W 003°02'3 3.2
2016-Dec-09 08:33N 46°13' W 003°01'3 2.6
2016-Dec-09 07:33N 46°12' W 002°58'  
Track history (hours):
 
Tides and Currents Weather Stations Pressure Air Temp Water Temp Dewpoint Dewpoint Depression Visibility Wind Speed Wind Dir Waves Ship Positions

Fisher Golf

Last reported at 2016-Dec-19 07:18 UTC. Time now 2017-Jan-19 10:56 UTC.
Position N 46°28' W 003°32'.
Warning: this ship's position is 31 days out of date.

Length 20 m.

Type: Fishing. MMSI: 228239000.

Date/timePositionNaut miles runAvg speedWind from/ knotsBaromVisibWave heightAir tempDewpointWater temp
2016-Dec-19 07:18N 46°28' W 003°32'  
2016-Dec-14 01:09N 45°54' W 001°19'10 5.8
2016-Dec-13 23:20N 45°55' W 001°34'17 9.4
2016-Dec-13 21:33N 45°57' W 001°58'9 9.2
2016-Dec-13 20:33N 45°58' W 002°11'21 5.2
2016-Dec-13 16:31N 46°04' W 002°40'14 2.5
2016-Dec-13 11:04N 46°10' W 002°58'2 3.0
2016-Dec-13 10:33N 46°10' W 003°01'3 2.9
2016-Dec-13 09:30N 46°11' W 003°05'8 1.8
2016-Dec-13 05:18N 46°04' W 003°01'2 2.8
2016-Dec-13 04:28N 46°02' W 003°00'3 2.9
2016-Dec-13 03:31N 45°59' W 003°00'5 2.2
2016-Dec-13 01:12N 46°00' W 002°53'4 2.7
2016-Dec-12 23:33N 46°05' W 002°52'6 2.1
2016-Dec-12 20:28N 46°02' W 002°44'3 2.8
2016-Dec-12 19:31N 46°01' W 002°48'5 0.4
2016-Dec-12 07:31N 45°58' W 002°53'3 3.0
2016-Dec-12 06:27N 45°55' W 002°52'3 3.0
2016-Dec-12 05:33N 45°52' W 002°51'3 3.0
2016-Dec-12 04:33N 45°49' W 002°51'3 2.7
2016-Dec-12 03:32N 45°47' W 002°49'3 2.7
2016-Dec-12 02:34N 45°49' W 002°52'3 3.1
2016-Dec-12 01:33N 45°51' W 002°54'3 3.1
2016-Dec-12 00:32N 45°54' W 002°57'3 3.1
2016-Dec-11 23:33N 45°57' W 002°59'3 3.1
2016-Dec-11 22:33N 45°59' W 003°00'2 2.4
2016-Dec-11 21:33N 46°02' W 003°00'3 2.6
2016-Dec-11 20:33N 46°04' W 003°01'3 2.7
2016-Dec-11 19:31N 46°07' W 003°02'3 2.7
2016-Dec-11 18:29N 46°09' W 003°05'3 2.8
2016-Dec-11 17:34N 46°11' W 003°08'2 2.3
2016-Dec-11 16:33N 46°12' W 003°11'3 2.9
2016-Dec-11 15:34N 46°14' W 003°13'3 3.1
2016-Dec-11 14:34N 46°16' W 003°16'3 3.1
2016-Dec-11 13:33N 46°16' W 003°21'25 1.9
2016-Dec-11 00:33N 46°36' W 003°43'3 2.8
2016-Dec-10 23:33N 46°36' W 003°39'3 2.8
2016-Dec-10 22:33N 46°34' W 003°36'3 2.8
2016-Dec-10 21:33N 46°31' W 003°35'3 3.1
2016-Dec-10 20:33N 46°28' W 003°33'3 3.2
2016-Dec-10 19:33N 46°25' W 003°31'3 3.4
2016-Dec-10 18:33N 46°22' W 003°32'3 3.3
2016-Dec-10 17:33N 46°19' W 003°32'2 1.8
2016-Dec-10 16:33N 46°17' W 003°30'2 2.1
2016-Dec-10 15:33N 46°19' W 003°30'3 2.7
2016-Dec-10 14:33N 46°22' W 003°28'6 2.6
2016-Dec-10 12:06N 46°21' W 003°19'5 2.6
2016-Dec-10 10:18N 46°17' W 003°20'3 3.3
2016-Dec-10 09:30N 46°15' W 003°23'3 3.0
2016-Dec-10 08:33N 46°16' W 003°27'4 2.7
2016-Dec-10 07:12N 46°20' W 003°30'7 0.5
2016-Dec-09 16:22N 46°26' W 003°25'3 3.2
2016-Dec-09 15:32N 46°26' W 003°21'6 3.0
2016-Dec-09 13:29N 46°25' W 003°12'6 2.7
2016-Dec-09 11:18N 46°21' W 003°06'2 2.9
2016-Dec-09 10:33N 46°19' W 003°05'3 2.9
2016-Dec-09 09:33N 46°16' W 003°02'3 3.2
2016-Dec-09 08:33N 46°13' W 003°01'3 2.6
2016-Dec-09 07:33N 46°12' W 002°58'  

Dump ship's entire track history